Time;durP1;ratioP1;P1;durP2;ratioP2;P2;SDS_P1;SDS_P2;PMS_P1;PMS_P2;Temp;Humidity;BMP_temperature;BMP_pressure;BME280_temperature;BME280_humidity;BME280_pressure;Samples;Min_cycle;Max_cycle;Signal;HPM_P1;HPM_P2
2022/11/26 00:01:21;;;;;;;31.07;16.70;;;;;;;;;;5071144;28;20204;-45
2022/11/26 00:03:48;;;;;;;31.70;16.37;;;;;;;;;;5072480;28;20441;-45
2022/11/26 00:06:21;;;;;;;31.80;16.77;;;;;;;;;;5072248;28;20207;-45
2022/11/26 00:08:47;;;;;;;35.57;16.90;;;;;;;;;;5072562;28;20578;-45
2022/11/26 00:11:15;;;;;;;27.83;15.47;;;;;;;;;;5072579;28;20235;-45
2022/11/26 00:13:41;;;;;;;27.57;16.30;;;;;;;;;;5072453;28;20916;-45
2022/11/26 00:16:08;;;;;;;25.57;16.37;;;;;;;;;;5072129;28;20662;-45
2022/11/26 00:18:34;;;;;;;28.60;15.57;;;;;;;;;;5072162;28;20666;-45
2022/11/26 00:21:00;;;;;;;26.63;15.87;;;;;;;;;;5072314;28;20473;-44
2022/11/26 00:23:28;;;;;;;35.43;16.77;;;;;;;;;;5072375;28;20278;-45
2022/11/26 00:25:55;;;;;;;24.80;15.03;;;;;;;;;;5072236;28;20261;-45
2022/11/26 00:28:27;;;;;;;29.50;15.53;;;;;;;;;;5071871;28;20242;-45
2022/11/26 00:30:55;;;;;;;32.73;17.30;;;;;;;;;;5072174;28;20663;-45
2022/11/26 00:33:21;;;;;;;26.07;15.50;;;;;;;;;;5072003;28;20456;-45
2022/11/26 00:35:47;;;;;;;25.53;15.03;;;;;;;;;;5072052;28;20212;-45
2022/11/26 00:38:16;;;;;;;24.97;16.07;;;;;;;;;;5071867;28;20252;-45
2022/11/26 00:40:43;;;;;;;25.87;16.67;;;;;;;;;;5071851;28;20194;-45
2022/11/26 00:43:10;;;;;;;23.60;14.90;;;;;;;;;;5071834;28;20499;-45
2022/11/26 00:45:36;;;;;;;22.50;14.53;;;;;;;;;;5072035;28;20200;-45
2022/11/26 00:48:02;;;;;;;23.63;15.30;;;;;;;;;;5070824;28;20241;-45
2022/11/26 00:50:32;;;;;;;27.80;15.17;;;;;;;;;;5071548;28;20242;-45
2022/11/26 00:52:58;;;;;;;22.53;13.70;;;;;;;;;;5071465;28;20615;-45
2022/11/26 00:55:26;;;;;;;26.20;14.60;;;;;;;;;;5071629;28;20666;-45
2022/11/26 00:57:54;;;;;;;28.00;14.57;;;;;;;;;;5071708;28;20429;-45
2022/11/26 01:00:22;;;;;;;28.07;16.03;;;;;;;;;;5071312;28;20200;-45
2022/11/26 01:02:48;;;;;;;28.70;17.60;;;;;;;;;;5057110;28;20200;-45
2022/11/26 01:05:14;;;;;;;28.47;15.77;;;;;;;;;;5050734;28;20204;-45
2022/11/26 01:07:41;;;;;;;21.33;12.87;;;;;;;;;;5051369;28;20544;-45
2022/11/26 01:10:14;;;;;;;27.50;14.60;;;;;;;;;;5051238;28;20263;-44
2022/11/26 01:12:40;;;;;;;29.03;14.53;;;;;;;;;;5051677;28;20200;-44
2022/11/26 01:15:08;;;;;;;29.20;16.07;;;;;;;;;;5051396;28;20207;-44
2022/11/26 01:17:34;;;;;;;23.23;14.87;;;;;;;;;;5051537;28;20196;-45
2022/11/26 01:20:00;;;;;;;22.47;15.27;;;;;;;;;;5051393;28;20438;-44
2022/11/26 01:22:26;;;;;;;27.53;15.63;;;;;;;;;;5051480;28;20720;-45
2022/11/26 01:24:52;;;;;;;23.50;15.80;;;;;;;;;;5051295;28;20203;-44
2022/11/26 01:27:19;;;;;;;29.37;16.07;;;;;;;;;;5051369;28;20201;-45
2022/11/26 01:29:45;;;;;;;23.97;14.87;;;;;;;;;;5051323;28;20227;-44
2022/11/26 01:32:13;;;;;;;21.67;15.13;;;;;;;;;;5051373;28;20200;-45
2022/11/26 01:34:39;;;;;;;31.27;17.13;;;;;;;;;;5051358;28;20960;-45
2022/11/26 01:37:10;;;;;;;36.00;17.13;;;;;;;;;;5051298;28;20505;-45
2022/11/26 01:39:36;;;;;;;35.67;16.83;;;;;;;;;;5051395;28;20435;-45
2022/11/26 01:42:05;;;;;;;30.40;16.10;;;;;;;;;;5051183;28;20794;-44
2022/11/26 01:44:32;;;;;;;26.80;16.13;;;;;;;;;;5051399;28;20505;-45
2022/11/26 01:46:58;;;;;;;36.17;17.40;;;;;;;;;;5051224;28;20821;-45
2022/11/26 01:49:26;;;;;;;25.83;16.13;;;;;;;;;;5051177;28;20331;-45
2022/11/26 01:51:56;;;;;;;31.43;17.23;;;;;;;;;;5051310;28;20462;-45
2022/11/26 01:54:23;;;;;;;27.33;16.17;;;;;;;;;;5051077;28;20458;-45
2022/11/26 01:56:51;;;;;;;32.93;17.67;;;;;;;;;;5051099;28;20852;-45
2022/11/26 01:59:18;;;;;;;35.83;17.30;;;;;;;;;;5051751;28;20454;-45
2022/11/26 02:01:44;;;;;;;29.33;17.20;;;;;;;;;;5055018;28;20454;-45
2022/11/26 02:04:12;;;;;;;29.83;16.00;;;;;;;;;;5054850;28;20542;-45
2022/11/26 02:06:40;;;;;;;30.07;17.77;;;;;;;;;;5055117;28;20450;-45
2022/11/26 02:09:07;;;;;;;32.70;17.47;;;;;;;;;;5054527;28;21011;-45
2022/11/26 02:11:34;;;;;;;32.13;16.67;;;;;;;;;;5055017;28;20427;-44
2022/11/26 02:14:02;;;;;;;24.60;15.87;;;;;;;;;;5054809;28;20427;-45
2022/11/26 02:16:45;;;;;;;23.60;15.77;;;;;;;;;;5054902;28;20465;-45
2022/11/26 02:19:26;;;;;;;21.50;15.80;;;;;;;;;;5054632;28;20447;-45
2022/11/26 02:21:57;;;;;;;32.30;17.20;;;;;;;;;;5054791;28;20537;-45
2022/11/26 02:24:34;;;;;;;35.03;17.37;;;;;;;;;;5054496;28;20908;-45
2022/11/26 02:27:18;;;;;;;27.10;16.93;;;;;;;;;;5054573;28;20438;-45
2022/11/26 02:30:06;;;;;;;28.67;18.33;;;;;;;;;;5044204;28;20948;-44
2022/11/26 02:32:34;;;;;;;29.73;16.67;;;;;;;;;;5054597;28;20801;-45
2022/11/26 02:35:01;;;;;;;26.93;16.90;;;;;;;;;;5054245;28;20945;-45
2022/11/26 02:37:31;;;;;;;27.53;16.93;;;;;;;;;;5054466;28;20530;-45
2022/11/26 02:39:57;;;;;;;30.23;16.30;;;;;;;;;;5054234;28;20433;-45
2022/11/26 02:42:24;;;;;;;28.57;18.03;;;;;;;;;;5054278;28;20457;-44
2022/11/26 02:44:51;;;;;;;32.10;18.27;;;;;;;;;;5054221;28;20805;-45
2022/11/26 02:47:19;;;;;;;22.80;16.13;;;;;;;;;;5054171;28;20449;-45
2022/11/26 02:49:47;;;;;;;26.30;17.87;;;;;;;;;;5053954;28;20486;-45
2022/11/26 02:52:14;;;;;;;43.73;18.80;;;;;;;;;;5054014;28;20778;-45
2022/11/26 02:54:41;;;;;;;39.80;19.30;;;;;;;;;;5054076;28;20882;-44
2022/11/26 02:57:11;;;;;;;111.17;19.57;;;;;;;;;;5053800;28;20439;-45
2022/11/26 02:59:38;;;;;;;27.00;17.13;;;;;;;;;;5053321;28;20443;-45
2022/11/26 03:02:08;;;;;;;52.90;16.73;;;;;;;;;;5052903;28;20434;-45
2022/11/26 03:04:39;;;;;;;23.67;16.50;;;;;;;;;;5053469;28;20968;-44
2022/11/26 03:07:05;;;;;;;99.07;17.63;;;;;;;;;;5053728;28;20443;-45
2022/11/26 03:09:39;;;;;;;87.03;18.70;;;;;;;;;;5053313;28;20548;-45
2022/11/26 03:12:05;;;;;;;78.67;19.10;;;;;;;;;;5052490;28;20454;-44
2022/11/26 03:14:31;;;;;;;64.10;17.40;;;;;;;;;;5053604;28;20435;-44
2022/11/26 03:16:57;;;;;;;42.53;17.37;;;;;;;;;;5053587;28;20492;-45
2022/11/26 03:19:23;;;;;;;82.53;18.60;;;;;;;;;;5053562;28;20434;-44
2022/11/26 03:21:50;;;;;;;58.17;17.57;;;;;;;;;;5053536;28;20697;-44
2022/11/26 03:24:17;;;;;;;55.23;18.93;;;;;;;;;;5053330;28;20438;-44
2022/11/26 03:26:43;;;;;;;69.57;19.63;;;;;;;;;;5053556;28;20522;-44
2022/11/26 03:29:09;;;;;;;53.43;19.83;;;;;;;;;;5053286;28;20463;-44
2022/11/26 03:31:35;;;;;;;29.53;16.63;;;;;;;;;;5053401;28;20434;-44
2022/11/26 03:34:01;;;;;;;26.20;16.83;;;;;;;;;;5053261;28;20985;-44
2022/11/26 03:36:27;;;;;;;20.33;16.13;;;;;;;;;;5053110;28;20839;-44
2022/11/26 03:38:54;;;;;;;34.67;16.87;;;;;;;;;;5053143;28;20442;-45
2022/11/26 03:41:20;;;;;;;58.83;16.17;;;;;;;;;;5053091;28;20204;-44
2022/11/26 03:43:47;;;;;;;20.17;14.93;;;;;;;;;;5053311;28;20427;-45
2022/11/26 03:46:14;;;;;;;55.77;15.97;;;;;;;;;;5052954;28;20546;-45
2022/11/26 03:48:40;;;;;;;35.83;15.80;;;;;;;;;;5052954;28;20454;-45
2022/11/26 03:51:06;;;;;;;54.00;15.87;;;;;;;;;;5052837;28;20536;-44
2022/11/26 03:53:32;;;;;;;37.10;15.17;;;;;;;;;;5053028;28;20443;-44
2022/11/26 03:55:59;;;;;;;75.30;17.63;;;;;;;;;;5052693;28;20196;-45
2022/11/26 03:58:25;;;;;;;75.27;15.50;;;;;;;;;;5052864;28;20430;-45
2022/11/26 04:00:51;;;;;;;17.33;14.00;;;;;;;;;;5052775;28;20435;-44
2022/11/26 04:03:17;;;;;;;35.90;15.80;;;;;;;;;;5052697;28;20484;-44
2022/11/26 04:05:43;;;;;;;73.07;16.70;;;;;;;;;;5052746;28;20439;-44
2022/11/26 04:08:09;;;;;;;23.80;17.07;;;;;;;;;;5052465;28;20530;-45
2022/11/26 04:10:35;;;;;;;18.53;14.80;;;;;;;;;;5052677;28;20624;-46
2022/11/26 04:13:03;;;;;;;16.33;14.50;;;;;;;;;;5052655;28;20466;-45
2022/11/26 04:15:29;;;;;;;24.63;14.77;;;;;;;;;;5052559;28;20980;-45
2022/11/26 04:17:55;;;;;;;19.77;14.30;;;;;;;;;;5052566;28;20952;-45
2022/11/26 04:20:21;;;;;;;16.13;13.30;;;;;;;;;;5052321;28;20447;-45
2022/11/26 04:22:47;;;;;;;20.00;15.37;;;;;;;;;;5052205;28;20457;-46
2022/11/26 04:25:13;;;;;;;26.07;15.00;;;;;;;;;;5052327;28;20957;-45
2022/11/26 04:27:39;;;;;;;16.20;13.37;;;;;;;;;;5052445;28;20192;-46
2022/11/26 04:30:08;;;;;;;64.13;15.73;;;;;;;;;;5052209;28;20227;-46
2022/11/26 04:32:34;;;;;;;74.60;17.13;;;;;;;;;;5052240;28;20492;-45
2022/11/26 04:35:00;;;;;;;36.60;15.87;;;;;;;;;;5052145;28;20435;-46
2022/11/26 04:37:26;;;;;;;37.73;15.13;;;;;;;;;;5052152;28;20207;-46
2022/11/26 04:39:52;;;;;;;93.47;17.67;;;;;;;;;;5052156;28;20439;-45
2022/11/26 04:42:18;;;;;;;19.53;14.50;;;;;;;;;;5051978;28;20956;-46
2022/11/26 04:44:44;;;;;;;47.20;16.00;;;;;;;;;;5052048;28;20668;-45
2022/11/26 04:47:11;;;;;;;24.90;15.57;;;;;;;;;;5052056;28;20536;-45
2022/11/26 04:49:37;;;;;;;57.73;17.17;;;;;;;;;;5051744;28;20266;-45
2022/11/26 04:52:03;;;;;;;31.27;17.57;;;;;;;;;;5051908;28;20926;-45
2022/11/26 04:54:29;;;;;;;51.97;17.67;;;;;;;;;;5051762;28;20639;-45
2022/11/26 04:56:55;;;;;;;22.87;15.73;;;;;;;;;;5051908;28;20470;-46
2022/11/26 04:59:21;;;;;;;61.93;17.87;;;;;;;;;;5051764;28;20218;-46
2022/11/26 05:01:47;;;;;;;21.90;16.07;;;;;;;;;;5051897;28;20446;-46
2022/11/26 05:04:15;;;;;;;62.13;17.30;;;;;;;;;;5051690;28;20219;-46
2022/11/26 05:06:41;;;;;;;22.30;15.37;;;;;;;;;;5051823;28;20435;-46
2022/11/26 05:09:07;;;;;;;19.63;14.57;;;;;;;;;;5051369;28;20904;-45
2022/11/26 05:11:33;;;;;;;20.73;15.13;;;;;;;;;;5051552;28;20204;-44
2022/11/26 05:13:59;;;;;;;57.90;18.37;;;;;;;;;;5051622;28;20493;-45
2022/11/26 05:16:25;;;;;;;18.73;13.73;;;;;;;;;;5051563;28;20250;-45
2022/11/26 05:18:51;;;;;;;23.93;15.20;;;;;;;;;;5051643;28;20223;-44
2022/11/26 05:21:18;;;;;;;36.67;14.73;;;;;;;;;;5051453;28;20475;-45
2022/11/26 05:23:44;;;;;;;49.27;15.07;;;;;;;;;;5051553;28;20250;-45
2022/11/26 05:26:10;;;;;;;44.17;15.10;;;;;;;;;;5051297;28;20465;-45
2022/11/26 05:28:36;;;;;;;137.70;18.43;;;;;;;;;;5051579;28;20435;-44
2022/11/26 05:31:03;;;;;;;49.57;15.20;;;;;;;;;;5051223;28;20603;-44
2022/11/26 05:33:29;;;;;;;126.23;17.87;;;;;;;;;;5051542;28;20542;-44
2022/11/26 05:35:55;;;;;;;68.67;18.10;;;;;;;;;;5055173;28;20492;-44
2022/11/26 05:38:23;;;;;;;109.13;19.77;;;;;;;;;;5066933;28;20434;-44
2022/11/26 05:40:49;;;;;;;107.43;21.27;;;;;;;;;;5075547;28;20520;-44
2022/11/26 05:43:15;;;;;;;55.63;19.63;;;;;;;;;;5075400;28;20521;-44
2022/11/26 05:45:41;;;;;;;147.87;22.40;;;;;;;;;;5075162;28;20441;-45
2022/11/26 05:48:07;;;;;;;24.17;19.13;;;;;;;;;;5075376;28;20429;-44
2022/11/26 05:50:33;;;;;;;54.17;19.53;;;;;;;;;;5075066;28;20527;-43
2022/11/26 05:52:59;;;;;;;53.90;19.47;;;;;;;;;;5075379;28;20479;-43
2022/11/26 05:55:27;;;;;;;46.63;19.50;;;;;;;;;;5075180;28;20520;-43
2022/11/26 05:57:53;;;;;;;70.97;21.87;;;;;;;;;;5075215;28;20834;-43
2022/11/26 06:00:19;;;;;;;86.47;21.60;;;;;;;;;;5074991;28;20453;-45
2022/11/26 06:02:45;;;;;;;80.97;21.20;;;;;;;;;;5075207;28;20425;-44
2022/11/26 06:05:11;;;;;;;64.27;22.60;;;;;;;;;;5074913;28;20499;-43
2022/11/26 06:07:37;;;;;;;34.83;20.67;;;;;;;;;;5074968;28;20448;-46
2022/11/26 06:10:03;;;;;;;23.30;17.93;;;;;;;;;;5074673;28;20509;-46
2022/11/26 06:12:31;;;;;;;25.33;20.33;;;;;;;;;;5074697;28;20430;-46
2022/11/26 06:14:57;;;;;;;23.47;19.03;;;;;;;;;;5074821;28;20469;-43
2022/11/26 06:17:23;;;;;;;22.23;18.90;;;;;;;;;;5074819;28;20437;-44
2022/11/26 06:19:49;;;;;;;127.77;21.30;;;;;;;;;;5074632;28;20487;-44
2022/11/26 06:22:15;;;;;;;63.20;20.57;;;;;;;;;;5074538;28;20436;-44
2022/11/26 06:24:41;;;;;;;159.83;24.53;;;;;;;;;;5074700;28;20441;-44
2022/11/26 06:27:07;;;;;;;150.30;23.93;;;;;;;;;;5074454;28;20886;-44
2022/11/26 06:29:35;;;;;;;100.43;22.17;;;;;;;;;;5074535;28;20529;-44
2022/11/26 06:32:01;;;;;;;30.63;20.27;;;;;;;;;;5074498;28;20456;-44
2022/11/26 06:34:27;;;;;;;25.77;19.57;;;;;;;;;;5074421;28;20430;-44
2022/11/26 06:36:53;;;;;;;88.37;22.47;;;;;;;;;;5074402;28;20521;-44
2022/11/26 06:39:19;;;;;;;49.00;20.63;;;;;;;;;;5074137;28;20940;-44
2022/11/26 06:41:45;;;;;;;87.00;21.90;;;;;;;;;;5074385;28;20195;-44
2022/11/26 06:44:11;;;;;;;24.73;18.43;;;;;;;;;;5074176;28;20999;-44
2022/11/26 06:46:38;;;;;;;26.30;18.13;;;;;;;;;;5074297;28;20245;-44
2022/11/26 06:49:05;;;;;;;23.60;16.90;;;;;;;;;;5074090;28;20239;-44
2022/11/26 06:51:31;;;;;;;20.43;16.43;;;;;;;;;;5074065;28;20880;-44
2022/11/26 06:53:57;;;;;;;28.50;15.87;;;;;;;;;;5072828;28;20468;-45
2022/11/26 06:56:24;;;;;;;18.13;14.60;;;;;;;;;;5073235;28;20524;-43
2022/11/26 06:58:53;;;;;;;18.80;15.17;;;;;;;;;;5073176;28;20476;-45
2022/11/26 07:01:22;;;;;;;17.50;14.97;;;;;;;;;;5073351;28;20923;-46
2022/11/26 07:03:49;;;;;;;18.20;14.13;;;;;;;;;;5073997;28;20440;-45
2022/11/26 07:06:16;;;;;;;26.47;17.67;;;;;;;;;;5073840;28;20523;-45
2022/11/26 07:08:43;;;;;;;17.77;14.97;;;;;;;;;;5073599;28;20449;-45
2022/11/26 07:11:09;;;;;;;16.47;13.90;;;;;;;;;;5073687;28;20528;-45
2022/11/26 07:13:35;;;;;;;16.67;13.53;;;;;;;;;;5073885;28;20483;-45
2022/11/26 07:16:01;;;;;;;29.47;14.07;;;;;;;;;;5070417;28;20949;-45
2022/11/26 07:18:27;;;;;;;29.43;15.33;;;;;;;;;;5053875;28;20438;-45
2022/11/26 07:20:55;;;;;;;81.80;17.17;;;;;;;;;;5053653;28;20553;-45
2022/11/26 07:23:21;;;;;;;63.60;17.30;;;;;;;;;;5053478;28;20481;-45
2022/11/26 07:25:47;;;;;;;18.33;14.90;;;;;;;;;;5053503;28;20443;-45
2022/11/26 07:28:13;;;;;;;56.57;16.37;;;;;;;;;;5053435;28;20433;-45
2022/11/26 07:30:39;;;;;;;17.57;13.93;;;;;;;;;;5053415;28;20474;-45
2022/11/26 07:33:05;;;;;;;16.33;13.90;;;;;;;;;;5053396;28;20232;-45
2022/11/26 07:35:31;;;;;;;43.57;16.13;;;;;;;;;;5053194;28;20919;-45
2022/11/26 07:37:59;;;;;;;23.20;14.30;;;;;;;;;;5053230;28;20192;-46
2022/11/26 07:40:25;;;;;;;15.23;13.63;;;;;;;;;;5053046;28;20431;-45
2022/11/26 07:42:51;;;;;;;16.03;13.50;;;;;;;;;;5053305;28;20510;-45
2022/11/26 07:45:17;;;;;;;39.37;15.37;;;;;;;;;;5053006;28;20750;-45
2022/11/26 07:47:43;;;;;;;16.63;13.13;;;;;;;;;;5053218;28;20198;-45
2022/11/26 07:50:09;;;;;;;21.03;17.30;;;;;;;;;;5052747;28;20236;-45
2022/11/26 07:52:35;;;;;;;19.37;14.80;;;;;;;;;;5053029;28;20438;-45
2022/11/26 07:55:02;;;;;;;17.90;14.43;;;;;;;;;;5052928;28;20462;-45
2022/11/26 07:57:28;;;;;;;28.13;14.30;;;;;;;;;;5052217;28;20446;-45
2022/11/26 07:59:54;;;;;;;16.80;13.40;;;;;;;;;;5052891;28;20439;-46
2022/11/26 08:02:20;;;;;;;21.33;13.37;;;;;;;;;;5052725;28;20206;-45
2022/11/26 08:04:46;;;;;;;21.33;13.67;;;;;;;;;;5052543;28;20227;-45
2022/11/26 08:07:12;;;;;;;91.17;15.43;;;;;;;;;;5052438;28;20750;-45
2022/11/26 08:09:38;;;;;;;72.17;15.97;;;;;;;;;;5063777;28;20560;-47
2022/11/26 08:12:06;;;;;;;17.53;14.20;;;;;;;;;;5072477;28;20283;-43
2022/11/26 08:14:32;;;;;;;25.03;15.40;;;;;;;;;;5072649;28;20438;-43
2022/11/26 08:16:58;;;;;;;17.83;14.07;;;;;;;;;;5072492;28;20462;-43
2022/11/26 08:19:24;;;;;;;36.93;14.73;;;;;;;;;;5072260;28;20477;-43
2022/11/26 08:21:50;;;;;;;19.53;15.23;;;;;;;;;;5072367;28;20261;-43
2022/11/26 08:24:18;;;;;;;68.17;15.67;;;;;;;;;;5072115;28;20785;-42
2022/11/26 08:26:44;;;;;;;18.23;14.57;;;;;;;;;;5072302;28;20430;-43
2022/11/26 08:29:11;;;;;;;45.77;14.57;;;;;;;;;;5072302;28;20434;-43
2022/11/26 08:31:39;;;;;;;35.20;14.03;;;;;;;;;;5071859;28;20481;-42
2022/11/26 08:34:05;;;;;;;18.13;14.43;;;;;;;;;;5072079;28;20445;-42
2022/11/26 08:36:32;;;;;;;20.13;13.77;;;;;;;;;;5071924;28;20432;-42
2022/11/26 08:38:58;;;;;;;17.20;13.50;;;;;;;;;;5063263;28;20492;-42
2022/11/26 08:41:24;;;;;;;33.57;14.17;;;;;;;;;;5061004;28;20444;-42
2022/11/26 08:43:50;;;;;;;24.90;13.80;;;;;;;;;;5062709;28;20430;-42
2022/11/26 08:46:18;;;;;;;66.27;16.33;;;;;;;;;;5060775;28;20533;-42
2022/11/26 08:48:44;;;;;;;56.67;15.50;;;;;;;;;;5060978;28;20207;-43
2022/11/26 08:51:11;;;;;;;19.27;14.13;;;;;;;;;;5062199;28;20466;-42
2022/11/26 08:53:37;;;;;;;32.17;17.97;;;;;;;;;;5060718;28;20840;-42
2022/11/26 08:56:05;;;;;;;25.97;15.03;;;;;;;;;;5058524;28;20430;-42
2022/11/26 08:58:32;;;;;;;21.23;14.87;;;;;;;;;;5051709;28;20443;-42
2022/11/26 09:00:58;;;;;;;18.53;14.53;;;;;;;;;;5051680;28;20496;-43
2022/11/26 09:03:26;;;;;;;21.33;14.73;;;;;;;;;;5051542;28;20604;-42
2022/11/26 09:05:52;;;;;;;21.87;13.70;;;;;;;;;;5051755;28;21114;-43
2022/11/26 09:08:18;;;;;;;43.50;16.90;;;;;;;;;;5067229;28;20737;-44
2022/11/26 09:10:52;;;;;;;21.33;15.43;;;;;;;;;;5071356;28;20312;-43
2022/11/26 09:13:18;;;;;;;27.57;15.73;;;;;;;;;;5071585;28;20289;-43
2022/11/26 09:15:44;;;;;;;19.77;15.03;;;;;;;;;;5071611;28;20533;-44
2022/11/26 09:18:10;;;;;;;21.50;15.67;;;;;;;;;;5071455;28;20187;-43
2022/11/26 09:20:37;;;;;;;20.60;15.47;;;;;;;;;;5071462;28;20603;-43
2022/11/26 09:23:03;;;;;;;20.97;15.40;;;;;;;;;;5071489;28;20192;-43
2022/11/26 09:25:29;;;;;;;24.07;17.87;;;;;;;;;;5071419;28;20199;-43
2022/11/26 09:27:55;;;;;;;21.93;16.77;;;;;;;;;;5071499;28;20195;-43
2022/11/26 09:30:21;;;;;;;63.53;19.00;;;;;;;;;;5071307;28;20577;-43
2022/11/26 09:32:47;;;;;;;22.30;15.77;;;;;;;;;;5071585;28;20475;-43
2022/11/26 09:35:14;;;;;;;24.73;16.60;;;;;;;;;;5071425;28;20612;-42
2022/11/26 09:37:41;;;;;;;33.13;17.90;;;;;;;;;;5071508;28;20211;-43
2022/11/26 09:40:10;;;;;;;33.17;18.50;;;;;;;;;;5071262;28;20749;-42
2022/11/26 09:42:42;;;;;;;25.63;17.00;;;;;;;;;;5071281;28;20183;-44
2022/11/26 09:45:10;;;;;;;32.33;18.13;;;;;;;;;;5071384;28;20295;-47
2022/11/26 09:47:38;;;;;;;25.60;17.07;;;;;;;;;;5070766;28;20282;-45
2022/11/26 09:50:08;;;;;;;31.17;19.23;;;;;;;;;;5068531;28;20285;-44
2022/11/26 09:52:35;;;;;;;26.47;18.40;;;;;;;;;;5071509;28;20209;-43
2022/11/26 09:55:11;;;;;;;26.40;19.03;;;;;;;;;;5071354;28;20204;-43
2022/11/26 09:57:40;;;;;;;38.00;19.90;;;;;;;;;;5071578;28;20211;-44
2022/11/26 10:00:10;;;;;;;32.30;20.37;;;;;;;;;;5071271;28;20192;-48
2022/11/26 10:02:37;;;;;;;39.37;20.70;;;;;;;;;;5070651;28;20226;-44
2022/11/26 10:05:04;;;;;;;28.50;18.77;;;;;;;;;;5071295;28;20274;-42
2022/11/26 10:07:40;;;;;;;39.00;21.00;;;;;;;;;;5070011;28;20203;-42
2022/11/26 10:10:13;;;;;;;42.40;21.30;;;;;;;;;;5071237;28;20812;-43
2022/11/26 10:12:44;;;;;;;39.00;22.10;;;;;;;;;;5069372;28;20203;-43
2022/11/26 10:15:13;;;;;;;35.57;22.07;;;;;;;;;;5070913;28;20274;-42
2022/11/26 10:17:42;;;;;;;34.20;21.57;;;;;;;;;;5068351;28;20195;-42
2022/11/26 10:20:23;;;;;;;37.43;21.93;;;;;;;;;;5071568;28;20253;-42
2022/11/26 10:22:50;;;;;;;39.87;21.90;;;;;;;;;;5041238;28;20769;-44
2022/11/26 10:25:19;;;;;;;32.97;19.87;;;;;;;;;;5074487;28;20196;-44
2022/11/26 10:27:45;;;;;;;33.80;21.70;;;;;;;;;;5074831;28;20257;-44
2022/11/26 10:30:16;;;;;;;44.33;21.93;;;;;;;;;;5074600;28;20239;-44
2022/11/26 10:32:43;;;;;;;32.37;21.90;;;;;;;;;;5074722;28;20231;-43
2022/11/26 10:35:13;;;;;;;41.50;21.50;;;;;;;;;;5074518;28;20207;-48
2022/11/26 10:37:39;;;;;;;41.10;21.70;;;;;;;;;;5074369;28;20257;-44
2022/11/26 10:40:15;;;;;;;38.03;21.20;;;;;;;;;;5074584;28;20200;-44
2022/11/26 10:42:44;;;;;;;34.87;22.20;;;;;;;;;;5074476;28;20191;-43
2022/11/26 10:45:16;;;;;;;32.93;20.93;;;;;;;;;;5074356;28;20290;-44
2022/11/26 10:47:42;;;;;;;32.53;21.67;;;;;;;;;;5072330;28;20288;-43
2022/11/26 10:50:19;;;;;;;32.23;21.00;;;;;;;;;;5073815;28;20322;-44
2022/11/26 10:52:45;;;;;;;35.03;21.27;;;;;;;;;;5074018;28;20195;-44
2022/11/26 10:55:20;;;;;;;33.57;19.90;;;;;;;;;;5073836;28;20200;-43
2022/11/26 10:57:50;;;;;;;35.70;21.63;;;;;;;;;;5074080;28;20638;-44
2022/11/26 11:00:30;;;;;;;38.17;22.40;;;;;;;;;;5073902;28;20191;-43
2022/11/26 11:02:56;;;;;;;38.90;21.23;;;;;;;;;;5073916;28;20196;-44
2022/11/26 11:05:23;;;;;;;39.10;22.07;;;;;;;;;;5073818;28;20195;-43
2022/11/26 11:07:52;;;;;;;39.03;23.70;;;;;;;;;;5073697;28;20238;-43
2022/11/26 11:10:20;;;;;;;35.97;22.43;;;;;;;;;;5073562;28;20234;-43
2022/11/26 11:12:49;;;;;;;44.50;23.17;;;;;;;;;;5073892;28;20203;-43
2022/11/26 11:15:20;;;;;;;43.83;23.63;;;;;;;;;;5073790;28;20242;-43
2022/11/26 11:17:46;;;;;;;44.83;24.77;;;;;;;;;;5073873;28;20203;-43
2022/11/26 11:20:27;;;;;;;43.70;24.30;;;;;;;;;;5073679;28;20559;-43
2022/11/26 11:22:58;;;;;;;55.83;26.07;;;;;;;;;;5073444;28;20195;-43
2022/11/26 11:25:25;;;;;;;45.07;25.77;;;;;;;;;;5073533;28;20242;-43
2022/11/26 11:27:53;;;;;;;46.70;25.70;;;;;;;;;;5073690;28;20199;-43
2022/11/26 11:30:23;;;;;;;49.43;27.03;;;;;;;;;;5073422;28;20596;-43
2022/11/26 11:32:50;;;;;;;49.63;27.17;;;;;;;;;;5072499;28;20638;-43
2022/11/26 11:35:22;;;;;;;50.37;25.13;;;;;;;;;;5073325;28;20607;-43
2022/11/26 11:37:50;;;;;;;54.57;28.33;;;;;;;;;;5073319;28;20203;-43
2022/11/26 11:40:22;;;;;;;43.47;26.33;;;;;;;;;;5073266;28;20264;-43
2022/11/26 11:42:50;;;;;;;56.47;27.70;;;;;;;;;;5073331;28;20217;-43
2022/11/26 11:45:21;;;;;;;57.40;26.87;;;;;;;;;;5073110;28;20196;-43
2022/11/26 11:47:51;;;;;;;45.90;24.63;;;;;;;;;;5073259;28;20278;-43
2022/11/26 11:50:19;;;;;;;47.03;25.30;;;;;;;;;;5072757;28;20242;-43
2022/11/26 11:52:53;;;;;;;49.20;24.70;;;;;;;;;;5073127;28;20571;-43
2022/11/26 11:55:25;;;;;;;43.27;24.70;;;;;;;;;;5073077;28;20301;-43
2022/11/26 11:57:58;;;;;;;43.90;24.50;;;;;;;;;;5073146;28;20203;-43
2022/11/26 12:00:29;;;;;;;42.20;23.63;;;;;;;;;;5072884;28;20180;-43
2022/11/26 12:02:58;;;;;;;38.63;22.40;;;;;;;;;;5072981;28;20203;-43
2022/11/26 12:05:33;;;;;;;37.57;21.33;;;;;;;;;;5072794;28;20307;-43
2022/11/26 12:08:04;;;;;;;39.13;22.13;;;;;;;;;;5072786;28;20210;-43
2022/11/26 12:10:34;;;;;;;44.67;23.17;;;;;;;;;;5072833;28;20231;-43
2022/11/26 12:13:01;;;;;;;40.23;22.53;;;;;;;;;;5072918;28;20187;-43
2022/11/26 12:15:29;;;;;;;43.30;24.03;;;;;;;;;;5072434;28;20253;-43
2022/11/26 12:17:58;;;;;;;42.53;23.10;;;;;;;;;;5072839;28;20203;-43
2022/11/26 12:20:27;;;;;;;43.77;24.17;;;;;;;;;;5072773;28;20242;-43
2022/11/26 12:22:57;;;;;;;54.47;26.00;;;;;;;;;;5072749;28;20204;-43
2022/11/26 12:25:27;;;;;;;50.87;24.67;;;;;;;;;;5072742;28;20282;-43
2022/11/26 12:27:57;;;;;;;54.30;27.53;;;;;;;;;;5072572;28;20192;-43
2022/11/26 12:30:25;;;;;;;61.27;29.13;;;;;;;;;;5072348;28;20227;-43
2022/11/26 12:32:56;;;;;;;50.77;25.40;;;;;;;;;;5072483;28;20556;-43
2022/11/26 12:35:27;;;;;;;49.70;24.87;;;;;;;;;;5072379;28;20232;-43
2022/11/26 12:37:57;;;;;;;58.13;26.60;;;;;;;;;;5072541;28;20198;-44
2022/11/26 12:40:28;;;;;;;52.03;26.77;;;;;;;;;;5072478;28;20188;-44
2022/11/26 12:46:16;;;;;;;49.77;25.27;;;;;;;;;;5072699;28;20158;-43
2022/11/26 12:48:49;;;;;;;50.23;25.50;;;;;;;;;;5071428;28;20199;-43
2022/11/26 12:51:22;;;;;;;46.27;25.93;;;;;;;;;;5071787;28;20227;-44
2022/11/26 12:53:50;;;;;;;51.77;25.70;;;;;;;;;;5072022;28;20257;-44
2022/11/26 12:56:19;;;;;;;48.70;26.47;;;;;;;;;;5072004;28;20232;-44
2022/11/26 12:58:52;;;;;;;44.03;25.60;;;;;;;;;;5072100;28;20238;-42
2022/11/26 13:01:18;;;;;;;48.43;25.73;;;;;;;;;;5071837;28;20196;-43
2022/11/26 13:03:45;;;;;;;53.13;25.97;;;;;;;;;;5072070;28;20199;-45
2022/11/26 13:06:18;;;;;;;48.97;25.47;;;;;;;;;;5071780;28;20200;-44
2022/11/26 13:08:48;;;;;;;45.77;25.43;;;;;;;;;;5072114;28;20215;-44
2022/11/26 13:11:26;;;;;;;43.37;25.40;;;;;;;;;;5071854;28;20224;-44
2022/11/26 13:13:57;;;;;;;53.90;27.43;;;;;;;;;;5072017;28;20207;-45
2022/11/26 13:16:28;;;;;;;44.40;26.47;;;;;;;;;;5071824;28;20191;-44
2022/11/26 13:18:58;;;;;;;49.57;27.33;;;;;;;;;;5071931;28;20207;-47
2022/11/26 13:21:34;;;;;;;43.20;25.27;;;;;;;;;;5071562;28;20212;-44
2022/11/26 13:24:08;;;;;;;40.47;24.97;;;;;;;;;;5071715;28;20195;-44
2022/11/26 13:26:39;;;;;;;46.00;26.53;;;;;;;;;;5071485;28;20207;-44
2022/11/26 13:29:16;;;;;;;39.57;23.77;;;;;;;;;;5071554;28;20219;-44
2022/11/26 13:31:51;;;;;;;44.47;26.43;;;;;;;;;;5071478;28;20219;-44
2022/11/26 13:34:29;;;;;;;46.00;25.93;;;;;;;;;;5071377;28;20252;-44
2022/11/26 13:37:02;;;;;;;44.43;26.07;;;;;;;;;;5071301;28;20211;-44
2022/11/26 13:39:36;;;;;;;48.63;26.23;;;;;;;;;;5071252;28;20199;-44
2022/11/26 13:42:20;;;;;;;41.70;25.40;;;;;;;;;;5071355;28;20207;-44
2022/11/26 13:45:12;;;;;;;39.13;24.63;;;;;;;;;;5071066;28;20709;-44
2022/11/26 13:47:39;;;;;;;48.20;26.63;;;;;;;;;;5035046;28;20639;-44
2022/11/26 13:50:10;;;;;;;43.87;26.63;;;;;;;;;;5069093;28;20315;-45
2022/11/26 13:52:39;;;;;;;43.90;26.77;;;;;;;;;;5070876;28;20205;-44
2022/11/26 13:55:08;;;;;;;43.97;26.13;;;;;;;;;;5071611;28;20238;-44
2022/11/26 13:57:38;;;;;;;46.73;26.70;;;;;;;;;;5074929;28;20222;-44
2022/11/26 14:00:05;;;;;;;45.20;27.73;;;;;;;;;;5075042;28;20214;-44
2022/11/26 14:02:41;;;;;;;42.10;26.27;;;;;;;;;;5074770;28;20222;-45
2022/11/26 14:05:09;;;;;;;47.90;27.17;;;;;;;;;;5075056;28;20202;-45
2022/11/26 14:07:35;;;;;;;44.27;26.13;;;;;;;;;;5074946;28;20286;-44
2022/11/26 14:10:02;;;;;;;39.53;25.83;;;;;;;;;;5074828;28;20273;-45
2022/11/26 14:12:43;;;;;;;37.10;24.23;;;;;;;;;;5075021;28;20619;-44
2022/11/26 14:15:35;;;;;;;42.87;25.23;;;;;;;;;;5074901;28;20606;-43
2022/11/26 14:18:01;;;;;;;33.23;23.20;;;;;;;;;;5074936;28;20196;-45
2022/11/26 14:20:28;;;;;;;38.77;25.03;;;;;;;;;;5074524;28;20196;-44
2022/11/26 14:22:54;;;;;;;40.33;23.97;;;;;;;;;;5075041;28;20246;-43
2022/11/26 14:25:36;;;;;;;42.90;25.87;;;;;;;;;;5074673;28;20199;-43